Shelburne, Massachusetts
Current Conditions -  °F | °C
As of 3:52 AM on Friday 31 Oct 2014 (Local Time) from KAQW Reporting Station
Clear Clear  
Wind Chill: 27°   Ceiling: Unl
Heat Index: 32°   Visibility: 10mi
Dew Point: 30°   Wind: 5mph
Humidity: 92%   Direction: 280°W
Pressure: 30.02"   Gusts: NA
Location:  42.6026°N, 72.7442°W
Report Text: KAQW 310752Z AUTO 28004KT 10SM CLR 00/M01 A3002 RMK AO2 SLP173 T00001011
Loading
Personal Weather Stations






























Interactive Weather Map
Tropical Storm Tracking
New forecast layout! Learn more

10-Day Weather Forecast

Advertisements
Track Severe Weather on mobile